Time;durP1;ratioP1;P1;durP2;ratioP2;P2;SDS_P1;SDS_P2;PMS_P1;PMS_P2;Temp;Humidity;BMP_temperature;BMP_pressure;BME280_temperature;BME280_humidity;BME280_pressure;Samples;Min_cycle;Max_cycle;Signal;HPM_P1;HPM_P2
2022/05/04 00:00:14;;;;;;;30.65;19.67;;;7.50;99.90;;;;;;5097152;28;20058;-76
2022/05/04 00:02:43;;;;;;;27.98;19.67;;;7.60;99.90;;;;;;5096640;28;20036;-75
2022/05/04 00:05:11;;;;;;;30.90;20.35;;;7.50;99.90;;;;;;5114667;28;20050;-76
2022/05/04 00:07:40;;;;;;;31.65;20.63;;;7.50;99.90;;;;;;5096524;28;20047;-75
2022/05/04 00:10:09;;;;;;;28.83;20.52;;;7.50;99.90;;;;;;5114730;28;20514;-76
2022/05/04 00:12:36;;;;;;;33.30;20.55;;;7.50;99.90;;;;;;5114958;28;20055;-76
2022/05/04 00:15:05;;;;;;;34.35;20.88;;;7.50;99.90;;;;;;5114646;28;20044;-75
2022/05/04 00:17:32;;;;;;;34.83;22.25;;;7.50;99.90;;;;;;5114608;28;20044;-75
2022/05/04 00:20:00;;;;;;;30.55;19.65;;;7.50;99.90;;;;;;5096218;28;20043;-76
2022/05/04 00:22:28;;;;;;;26.10;19.35;;;7.40;99.90;;;;;;5114731;28;20122;-75
2022/05/04 00:24:57;;;;;;;28.67;19.42;;;7.40;99.90;;;;;;5097065;28;20040;-75
2022/05/04 00:27:25;;;;;;;25.15;17.10;;;7.30;99.90;;;;;;5115271;28;20039;-75
2022/05/04 00:29:53;;;;;;;30.23;18.75;;;7.30;99.90;;;;;;5115124;28;20539;-75
2022/05/04 00:32:21;;;;;;;27.42;18.77;;;7.30;99.90;;;;;;5128428;27;20043;-76
2022/05/04 00:34:49;;;;;;;25.98;17.88;;;7.30;99.90;;;;;;5113480;28;20082;-75
2022/05/04 00:37:16;;;;;;;25.60;19.70;;;7.20;99.90;;;;;;5114797;28;20042;-76
2022/05/04 00:39:44;;;;;;;30.08;20.83;;;7.10;99.90;;;;;;5115165;28;20039;-75
2022/05/04 00:42:15;;;;;;;25.33;18.80;;;7.10;99.90;;;;;;5114962;28;20047;-76
2022/05/04 00:44:44;;;;;;;25.05;17.45;;;7.10;99.90;;;;;;5115344;28;20122;-75
2022/05/04 00:47:12;;;;;;;21.75;17.25;;;7.00;99.90;;;;;;5115218;28;20044;-75
2022/05/04 00:49:41;;;;;;;26.02;18.30;;;7.00;99.90;;;;;;5112980;28;20059;-76
2022/05/04 00:52:10;;;;;;;24.58;17.40;;;6.90;99.90;;;;;;5095821;28;20489;-76
2022/05/04 00:54:38;;;;;;;28.85;17.25;;;6.90;99.90;;;;;;5097994;28;20146;-76
2022/05/04 00:57:07;;;;;;;23.35;17.42;;;6.90;99.90;;;;;;5081300;28;20048;-76
2022/05/04 00:59:37;;;;;;;26.77;18.40;;;6.90;99.90;;;;;;5098566;28;20097;-75
2022/05/04 01:02:05;;;;;;;28.15;19.30;;;6.90;99.90;;;;;;5098413;28;20047;-76
2022/05/04 01:04:34;;;;;;;28.08;18.67;;;6.80;99.90;;;;;;5114367;28;20047;-75
2022/05/04 01:07:01;;;;;;;26.83;17.73;;;6.80;99.90;;;;;;5114352;28;20051;-76
2022/05/04 01:09:30;;;;;;;26.08;17.48;;;6.90;99.90;;;;;;5114020;28;20046;-75
2022/05/04 01:11:58;;;;;;;27.45;17.08;;;6.90;99.90;;;;;;5112145;28;20071;-75
2022/05/04 01:14:25;;;;;;;24.70;17.08;;;6.90;99.90;;;;;;5102623;28;20143;-75
2022/05/04 01:16:54;;;;;;;25.17;15.98;;;6.80;99.90;;;;;;5088375;28;20048;-76
2022/05/04 01:19:23;;;;;;;23.55;15.70;;;6.70;99.90;;;;;;5087950;28;20525;-76
2022/05/04 01:21:52;;;;;;;20.90;15.25;;;6.60;99.90;;;;;;5097732;28;20040;-75
2022/05/04 01:24:19;;;;;;;21.92;16.02;;;6.50;99.90;;;;;;5116539;28;20051;-75
2022/05/04 01:26:47;;;;;;;20.40;15.43;;;6.50;99.90;;;;;;5116528;28;20092;-75
2022/05/04 01:29:14;;;;;;;21.48;15.77;;;6.50;99.90;;;;;;5096785;28;20092;-75
2022/05/04 01:31:43;;;;;;;22.50;14.23;;;6.50;99.90;;;;;;5100585;28;20050;-75
2022/05/04 01:34:10;;;;;;;19.42;14.27;;;6.40;99.90;;;;;;5077739;28;20131;-75
2022/05/04 01:36:37;;;;;;;20.05;14.13;;;6.50;99.90;;;;;;5114108;28;20040;-75
2022/05/04 01:39:06;;;;;;;23.27;16.25;;;6.50;99.90;;;;;;5114326;28;20047;-75
2022/05/04 01:44:19;;;;;;;25.15;16.80;;;6.30;99.90;;;;;;5096640;28;20039;-75
2022/05/04 01:46:46;;;;;;;26.00;16.42;;;6.30;99.90;;;;;;5115560;28;20052;-75
2022/05/04 01:49:14;;;;;;;22.98;16.88;;;6.30;99.90;;;;;;5118236;28;20079;-75
2022/05/04 01:51:41;;;;;;;27.35;16.63;;;6.20;99.90;;;;;;5099913;28;20048;-76
2022/05/04 01:54:11;;;;;;;19.83;15.43;;;6.20;99.90;;;;;;5099567;28;20050;-75
2022/05/04 01:56:39;;;;;;;21.58;15.68;;;6.20;99.90;;;;;;5118358;28;20048;-76
2022/05/04 01:59:06;;;;;;;21.88;14.98;;;6.30;99.90;;;;;;5099791;28;20097;-75
2022/05/04 02:01:34;;;;;;;22.23;15.93;;;6.30;99.90;;;;;;5116166;28;20502;-75
2022/05/04 02:04:03;;;;;;;22.40;15.88;;;6.20;99.90;;;;;;5115474;28;20097;-74
2022/05/04 02:06:31;;;;;;;21.00;15.40;;;6.20;99.90;;;;;;5117258;28;20122;-75
2022/05/04 02:08:59;;;;;;;23.88;16.45;;;6.20;99.90;;;;;;5117051;28;20039;-74
2022/05/04 02:11:32;;;;;;;20.83;15.85;;;6.20;99.90;;;;;;5098859;28;20058;-75
2022/05/04 02:14:00;;;;;;;20.55;15.57;;;6.20;99.90;;;;;;5116813;28;20044;-75
2022/05/04 02:16:28;;;;;;;22.75;15.30;;;6.20;99.90;;;;;;5116748;28;20040;-75
2022/05/04 02:18:56;;;;;;;26.42;14.57;;;6.30;99.90;;;;;;5099252;28;20052;-76
2022/05/04 02:21:24;;;;;;;23.65;15.38;;;6.10;99.90;;;;;;5098943;28;20116;-76
2022/05/04 02:23:52;;;;;;;21.50;15.70;;;6.00;99.90;;;;;;5116260;28;20042;-75
2022/05/04 02:26:19;;;;;;;22.55;16.00;;;5.90;99.90;;;;;;5098681;28;20112;-75
2022/05/04 02:28:48;;;;;;;21.63;15.50;;;5.90;99.90;;;;;;5116839;28;20043;-74
2022/05/04 02:31:16;;;;;;;23.13;14.60;;;5.90;99.90;;;;;;5106875;28;20036;-76
2022/05/04 02:33:44;;;;;;;24.33;14.85;;;5.80;99.90;;;;;;5096043;28;20036;-76
2022/05/04 02:38:56;;;;;;;18.38;13.07;;;5.80;99.90;;;;;;5115113;28;20044;-75
2022/05/04 02:41:24;;;;;;;19.50;14.20;;;5.80;99.90;;;;;;5096975;28;20063;-76
2022/05/04 02:43:53;;;;;;;19.00;14.73;;;5.80;99.90;;;;;;5112424;28;20395;-75
2022/05/04 02:46:23;;;;;;;22.30;15.98;;;5.90;99.90;;;;;;5110473;28;20096;-75
2022/05/04 02:48:50;;;;;;;22.52;14.45;;;5.90;99.90;;;;;;5115894;28;20501;-76
2022/05/04 02:51:18;;;;;;;18.02;13.90;;;5.90;99.90;;;;;;5114811;28;20475;-75
2022/05/04 02:53:45;;;;;;;17.88;14.15;;;5.90;99.90;;;;;;5116130;28;20110;-75
2022/05/04 02:56:15;;;;;;;18.33;13.60;;;5.90;99.90;;;;;;5116163;28;20122;-76
2022/05/04 02:58:43;;;;;;;18.83;14.60;;;5.80;99.90;;;;;;5096951;28;20050;-75
2022/05/04 03:03:58;;;;;;;24.73;17.13;;;5.80;99.90;;;;;;5115765;28;20117;-74
2022/05/04 03:06:26;;;;;;;29.13;17.40;;;5.70;99.90;;;;;;5116792;28;20426;-74
2022/05/04 03:08:54;;;;;;;23.35;17.17;;;5.70;99.90;;;;;;5126651;28;20148;-75
2022/05/04 03:14:07;;;;;;;20.15;14.07;;;5.70;99.90;;;;;;5117240;28;20122;-76
2022/05/04 03:16:36;;;;;;;18.52;13.65;;;5.60;99.90;;;;;;5108549;28;20048;-75
2022/05/04 03:19:04;;;;;;;20.55;13.95;;;5.60;99.90;;;;;;5098335;28;20063;-74
2022/05/04 03:21:32;;;;;;;19.60;13.98;;;5.60;99.90;;;;;;5098165;28;20386;-75
2022/05/04 03:24:00;;;;;;;17.98;13.35;;;5.60;99.90;;;;;;5115312;28;20043;-74
2022/05/04 03:26:28;;;;;;;20.30;13.93;;;5.60;99.90;;;;;;5115375;28;20031;-75
2022/05/04 03:28:56;;;;;;;19.38;14.35;;;5.50;99.90;;;;;;5114666;28;20043;-74
2022/05/04 03:31:24;;;;;;;25.13;13.85;;;5.50;99.90;;;;;;5097650;28;20093;-75
2022/05/04 03:33:53;;;;;;;19.15;13.35;;;5.60;99.90;;;;;;5115843;28;20044;-76
2022/05/04 03:36:21;;;;;;;18.15;13.45;;;5.60;99.90;;;;;;5115890;28;20097;-75
2022/05/04 03:38:48;;;;;;;20.55;14.68;;;5.60;99.90;;;;;;5100310;28;20055;-75
2022/05/04 03:41:16;;;;;;;24.55;15.48;;;5.60;99.90;;;;;;5118050;28;20411;-75
2022/05/04 03:43:44;;;;;;;29.65;17.83;;;5.60;99.90;;;;;;5096751;28;20066;-76
2022/05/04 03:46:16;;;;;;;23.02;15.60;;;5.60;99.90;;;;;;5097092;28;20039;-75
2022/05/04 03:48:44;;;;;;;25.10;15.63;;;5.60;99.90;;;;;;5097801;28;20424;-76
2022/05/04 03:51:15;;;;;;;23.25;15.25;;;5.60;99.90;;;;;;5097703;28;20448;-76
2022/05/04 03:53:43;;;;;;;28.80;17.58;;;5.70;99.90;;;;;;5114568;28;20478;-76
2022/05/04 03:56:11;;;;;;;31.20;18.48;;;5.70;99.90;;;;;;5115640;28;20075;-75
2022/05/04 03:58:40;;;;;;;36.05;19.25;;;5.80;99.90;;;;;;5096983;28;20047;-76
2022/05/04 04:01:08;;;;;;;26.98;16.23;;;5.80;99.90;;;;;;5097122;28;20452;-75
2022/05/04 04:03:36;;;;;;;24.77;15.85;;;6.10;99.90;;;;;;5096103;28;20096;-76
2022/05/04 04:06:04;;;;;;;24.55;15.75;;;6.60;99.90;;;;;;5102176;28;20047;-75
2022/05/04 04:08:33;;;;;;;25.80;18.15;;;7.10;99.90;;;;;;5095605;28;20505;-74
2022/05/04 04:11:00;;;;;;;23.08;15.68;;;7.70;99.90;;;;;;5097339;28;20096;-75
2022/05/04 04:13:28;;;;;;;20.50;15.60;;;8.30;99.90;;;;;;5113126;28;20080;-75
2022/05/04 04:15:55;;;;;;;22.52;15.65;;;8.90;99.90;;;;;;5115396;28;20043;-75
2022/05/04 04:18:24;;;;;;;21.33;16.35;;;9.40;99.90;;;;;;5114723;28;20047;-74
2022/05/04 04:23:39;;;;;;;28.43;15.83;;;10.70;99.90;;;;;;5114595;28;20119;-75
2022/05/04 04:26:07;;;;;;;23.30;16.77;;;11.20;99.90;;;;;;5114884;28;20290;-75
2022/05/04 04:28:35;;;;;;;22.55;16.83;;;11.50;99.90;;;;;;5114507;28;20530;-75
2022/05/04 04:31:03;;;;;;;24.05;13.95;;;11.80;99.90;;;;;;5117721;27;20057;-75
2022/05/04 04:33:31;;;;;;;22.50;14.57;;;12.00;99.90;;;;;;5114253;28;20058;-76
2022/05/04 04:35:59;;;;;;;20.48;14.13;;;11.50;99.90;;;;;;5113920;28;20467;-74
2022/05/04 04:38:27;;;;;;;23.15;14.32;;;10.90;99.90;;;;;;5114392;28;20098;-74
2022/05/04 04:40:56;;;;;;;22.60;13.88;;;10.30;99.90;;;;;;5114388;28;20067;-75
2022/05/04 04:43:24;;;;;;;22.38;13.30;;;9.90;99.90;;;;;;5096062;28;20134;-75
2022/05/04 04:45:52;;;;;;;22.38;12.23;;;9.60;99.90;;;;;;5114308;28;20131;-75
2022/05/04 04:48:21;;;;;;;22.67;12.73;;;9.50;99.90;;;;;;5114143;28;20046;-75
2022/05/04 04:50:49;;;;;;;19.10;13.52;;;9.60;99.90;;;;;;5096473;28;20035;-75
2022/05/04 04:53:17;;;;;;;21.48;13.32;;;9.70;99.90;;;;;;5114355;28;20081;-75
2022/05/04 04:55:45;;;;;;;19.55;14.00;;;9.70;99.90;;;;;;5115522;28;20115;-76
2022/05/04 04:58:15;;;;;;;20.50;14.95;;;9.70;99.90;;;;;;5114522;28;20059;-75
2022/05/04 05:00:43;;;;;;;25.25;16.23;;;9.70;99.90;;;;;;5096542;28;20065;-75
2022/05/04 05:03:11;;;;;;;21.67;16.10;;;9.80;99.90;;;;;;5114373;28;20071;-75
2022/05/04 05:05:42;;;;;;;24.55;17.65;;;9.90;99.90;;;;;;5113783;28;20498;-75
2022/05/04 05:08:10;;;;;;;27.35;16.92;;;10.20;99.90;;;;;;5114279;28;20498;-75
2022/05/04 05:10:38;;;;;;;23.95;16.17;;;10.20;99.90;;;;;;5113634;28;20054;-75
2022/05/04 05:13:05;;;;;;;22.25;15.55;;;10.20;99.90;;;;;;5111440;28;20040;-75
2022/05/04 05:18:20;;;;;;;20.20;14.23;;;10.50;99.90;;;;;;5089000;28;20063;-71
2022/05/04 05:20:47;;;;;;;21.98;13.70;;;11.30;99.90;;;;;;5090811;28;20057;-74
2022/05/04 05:23:15;;;;;;;19.50;13.07;;;12.10;99.90;;;;;;5089270;28;20056;-74
2022/05/04 05:25:42;;;;;;;22.23;14.30;;;12.80;99.90;;;;;;5113308;28;20048;-75
2022/05/04 05:28:10;;;;;;;24.00;14.20;;;13.00;99.90;;;;;;5109540;28;20049;-76
2022/05/04 05:30:39;;;;;;;21.50;13.40;;;12.80;99.90;;;;;;5109295;28;20035;-74
2022/05/04 05:33:07;;;;;;;24.10;16.63;;;12.80;99.90;;;;;;5117073;28;20127;-74
2022/05/04 05:35:34;;;;;;;20.13;13.38;;;12.70;99.90;;;;;;5113421;28;20074;-74
2022/05/04 05:38:02;;;;;;;17.77;11.48;;;12.60;99.90;;;;;;5088282;28;20063;-75
2022/05/04 05:40:29;;;;;;;19.58;12.75;;;12.40;99.90;;;;;;5116996;28;20031;-74
2022/05/04 05:42:56;;;;;;;26.23;11.57;;;12.50;99.90;;;;;;5116860;28;20047;-75
2022/05/04 05:45:24;;;;;;;16.35;10.82;;;12.60;99.90;;;;;;5117771;28;20444;-75
2022/05/04 05:47:53;;;;;;;20.30;12.00;;;12.90;99.90;;;;;;5117268;28;20519;-76
2022/05/04 05:50:20;;;;;;;20.13;10.93;;;13.20;99.90;;;;;;5117292;28;20559;-74
2022/05/04 05:52:48;;;;;;;17.02;11.27;;;13.40;99.90;;;;;;5098656;28;20054;-74
2022/05/04 05:55:15;;;;;;;15.05;10.88;;;13.50;99.90;;;;;;5098443;28;20410;-73
2022/05/04 05:57:43;;;;;;;15.55;10.95;;;13.90;99.90;;;;;;5111426;28;20040;-74
2022/05/04 06:00:11;;;;;;;17.83;10.15;;;14.30;99.90;;;;;;5109249;28;20055;-74
2022/05/04 06:02:42;;;;;;;15.63;9.25;;;14.60;99.90;;;;;;5116721;28;20166;-74
2022/05/04 06:05:10;;;;;;;13.98;8.60;;;14.90;99.90;;;;;;5098447;28;20059;-74
2022/05/04 06:07:38;;;;;;;15.15;9.13;;;15.30;99.90;;;;;;5115825;28;20051;-75
2022/05/04 06:10:07;;;;;;;15.73;8.98;;;15.20;99.90;;;;;;5113262;28;20125;-75
2022/05/04 06:12:34;;;;;;;12.90;8.40;;;15.40;99.90;;;;;;5112520;28;20052;-74
2022/05/04 06:15:02;;;;;;;13.40;8.73;;;15.50;99.90;;;;;;5113406;28;20047;-75
2022/05/04 06:17:29;;;;;;;15.68;7.80;;;15.50;99.90;;;;;;5096906;28;20089;-75
2022/05/04 06:19:57;;;;;;;14.15;8.35;;;15.20;99.90;;;;;;5116045;28;20102;-75
2022/05/04 06:22:26;;;;;;;10.82;8.20;;;15.10;99.90;;;;;;5115883;28;20051;-76
2022/05/04 06:24:53;;;;;;;15.38;8.55;;;15.30;99.90;;;;;;5097742;28;20498;-74
2022/05/04 06:27:21;;;;;;;10.02;7.47;;;15.20;99.90;;;;;;5097002;28;20509;-74
2022/05/04 06:35:18;;;;;;;10.38;6.97;;;15.70;99.90;;;;;;5114673;28;20040;-74
2022/05/04 06:37:46;;;;;;;9.38;6.40;;;16.10;99.90;;;;;;5115781;28;20031;-73
2022/05/04 06:40:14;;;;;;;9.93;7.13;;;16.50;99.90;;;;;;5115113;28;20039;-74
2022/05/04 06:42:42;;;;;;;12.70;8.32;;;16.70;99.90;;;;;;5115966;28;20092;-73
2022/05/04 06:45:10;;;;;;;17.85;8.85;;;17.00;99.90;;;;;;5116250;28;20130;-74
2022/05/04 06:47:38;;;;;;;15.25;7.88;;;17.30;99.90;;;;;;5117026;28;20032;-75
2022/05/04 06:50:06;;;;;;;14.90;7.13;;;17.60;99.90;;;;;;5117535;28;20508;-74
2022/05/04 06:52:34;;;;;;;16.10;7.70;;;17.60;99.90;;;;;;5118917;28;20050;-74
2022/05/04 06:55:03;;;;;;;11.15;8.02;;;17.70;99.90;;;;;;5119004;28;20099;-74
2022/05/04 06:57:30;;;;;;;14.43;7.90;;;17.90;99.90;;;;;;5099439;28;20051;-74
2022/05/04 06:59:59;;;;;;;13.38;8.15;;;17.80;99.90;;;;;;5121738;28;20055;-76
2022/05/04 07:02:27;;;;;;;10.35;6.60;;;18.00;99.90;;;;;;5119910;28;20050;-73
2022/05/04 07:04:54;;;;;;;15.88;9.60;;;18.20;98.40;;;;;;5115898;28;20044;-75
2022/05/04 07:07:22;;;;;;;13.52;6.82;;;18.30;97.20;;;;;;5117271;28;20051;-75
2022/05/04 07:09:49;;;;;;;10.63;6.57;;;18.40;95.50;;;;;;5122893;28;20103;-75
2022/05/04 07:12:18;;;;;;;12.57;7.28;;;18.60;95.10;;;;;;5099735;28;20048;-74
2022/05/04 07:14:45;;;;;;;15.98;8.50;;;18.60;93.50;;;;;;5119761;28;20410;-74
2022/05/04 07:17:13;;;;;;;11.00;7.07;;;18.70;93.50;;;;;;5121505;28;20051;-74
2022/05/04 07:19:41;;;;;;;12.43;6.30;;;18.90;93.00;;;;;;5116938;28;20046;-74
2022/05/04 07:22:08;;;;;;;11.27;7.00;;;18.80;91.80;;;;;;5116329;28;20046;-74
2022/05/04 07:24:36;;;;;;;16.63;6.85;;;18.80;91.80;;;;;;5115977;28;20032;-75
2022/05/04 07:27:04;;;;;;;7.65;5.53;;;19.00;91.90;;;;;;5116108;28;20035;-76
2022/05/04 07:29:33;;;;;;;11.15;5.82;;;19.20;91.70;;;;;;5098640;28;20119;-77
2022/05/04 07:32:00;;;;;;;7.65;6.15;;;19.30;90.90;;;;;;5116778;28;20051;-76
2022/05/04 07:34:29;;;;;;;8.50;6.30;;;19.30;91.50;;;;;;5116142;28;20193;-76
2022/05/04 07:36:56;;;;;;;15.30;6.40;;;19.20;91.60;;;;;;5118875;28;20055;-75
2022/05/04 07:42:25;;;;;;;12.35;6.28;;;18.80;92.70;;;;;;5115247;28;20093;-76
2022/05/04 07:44:58;;;;;;;14.20;7.60;;;18.90;92.40;;;;;;5115804;28;20467;-76
2022/05/04 07:47:27;;;;;;;11.25;7.25;;;19.10;92.30;;;;;;5113414;28;20076;-75
2022/05/04 07:49:54;;;;;;;12.45;8.50;;;19.50;91.60;;;;;;5114175;28;20047;-75
2022/05/04 07:52:22;;;;;;;11.45;7.13;;;19.60;91.70;;;;;;5114662;28;20084;-76
2022/05/04 07:54:50;;;;;;;16.80;9.25;;;19.60;91.40;;;;;;5114849;28;20040;-76
2022/05/04 07:57:17;;;;;;;34.97;20.80;;;19.70;91.60;;;;;;5113724;28;20116;-76
2022/05/04 08:04:16;;;;;;;11.30;6.72;;;19.70;91.60;;;;;;5115870;28;20043;-76
2022/05/04 08:05:19;;;;;;;;;;;19.70;91.30;;;;;;5096081;28;20041;-75
2022/05/04 08:07:46;;;;;;;11.90;6.95;;;19.70;91.70;;;;;;5114674;28;19926;-76
2022/05/04 08:10:14;;;;;;;8.20;5.82;;;19.80;91.70;;;;;;5114758;28;20040;-76
2022/05/04 08:12:41;;;;;;;10.63;6.40;;;20.10;91.20;;;;;;5114937;28;20058;-74
2022/05/04 08:15:10;;;;;;;13.20;7.50;;;20.30;90.70;;;;;;5113916;28;20090;-76
2022/05/04 08:17:39;;;;;;;12.05;7.15;;;20.50;90.50;;;;;;5115291;28;20035;-75
2022/05/04 08:20:07;;;;;;;9.20;6.80;;;20.70;90.00;;;;;;5102626;28;20046;-76
2022/05/04 08:22:35;;;;;;;10.27;6.93;;;20.90;89.60;;;;;;5104013;28;20032;-76
2022/05/04 08:25:03;;;;;;;15.30;7.57;;;20.60;89.30;;;;;;5113493;28;20042;-75
2022/05/04 08:27:32;;;;;;;10.07;8.00;;;20.60;89.90;;;;;;5115209;28;20044;-77
2022/05/04 08:30:00;;;;;;;12.65;6.65;;;20.70;89.50;;;;;;5114786;28;20092;-77
2022/05/04 08:32:29;;;;;;;9.07;6.45;;;20.70;88.60;;;;;;5114559;28;20067;-75
2022/05/04 08:34:58;;;;;;;7.93;5.63;;;20.40;86.20;;;;;;5117842;28;20410;-76
2022/05/04 08:37:27;;;;;;;13.10;6.00;;;20.60;86.60;;;;;;5118098;28;20106;-76
2022/05/04 08:39:54;;;;;;;10.88;6.38;;;20.70;85.50;;;;;;5117603;28;20070;-76
2022/05/04 08:42:23;;;;;;;11.93;6.75;;;20.90;85.70;;;;;;5117569;28;20052;-77
2022/05/04 08:44:58;;;;;;;9.85;5.35;;;21.10;85.40;;;;;;5113819;28;20036;-77
2022/05/04 08:47:31;;;;;;;10.15;6.05;;;21.10;81.70;;;;;;5113999;28;20040;-79
2022/05/04 08:50:03;;;;;;;8.50;5.38;;;21.10;80.20;;;;;;5115128;28;20135;-74
2022/05/04 08:52:31;;;;;;;9.57;4.18;;;21.10;79.00;;;;;;5114643;28;20043;-76
2022/05/04 08:55:01;;;;;;;6.97;3.40;;;21.10;77.20;;;;;;5109608;28;20059;-77
2022/05/04 08:57:29;;;;;;;5.30;4.03;;;21.40;68.80;;;;;;5096761;28;20093;-76
2022/05/04 08:59:56;;;;;;;7.05;4.53;;;21.20;71.30;;;;;;5102964;28;20047;-77
2022/05/04 09:02:24;;;;;;;7.95;4.30;;;21.00;72.40;;;;;;5115832;28;20130;-81
2022/05/04 09:04:52;;;;;;;8.68;4.78;;;21.00;71.20;;;;;;5112301;28;20042;-74
2022/05/04 09:07:25;;;;;;;9.60;4.45;;;21.20;71.20;;;;;;5114731;28;20070;-77
2022/05/04 09:09:53;;;;;;;7.88;5.30;;;21.40;70.40;;;;;;5096838;28;20066;-77
2022/05/04 09:12:20;;;;;;;6.35;4.72;;;21.50;72.30;;;;;;5101847;28;20074;-76
2022/05/04 09:14:48;;;;;;;10.60;5.38;;;21.80;70.40;;;;;;5095191;28;20054;-79
2022/05/04 09:17:17;;;;;;;9.32;5.72;;;21.70;69.90;;;;;;5113917;28;20032;-78
2022/05/04 09:20:45;;;;;;;10.15;6.35;;;21.80;71.10;;;;;;5113155;28;20059;-76
2022/05/04 09:22:52;;;;;;;13.13;5.20;;;21.80;71.40;;;;;;5114673;28;20318;-77
2022/05/04 09:25:20;;;;;;;;;;;21.70;70.90;;;;;;5098004;28;20055;-78
2022/05/04 09:27:49;;;;;;;10.75;4.45;;;21.60;69.00;;;;;;5116097;28;19963;-78
2022/05/04 09:30:17;;;;;;;9.10;4.40;;;21.60;69.00;;;;;;5117308;28;20050;-77
2022/05/04 09:32:48;;;;;;;6.10;3.55;;;21.80;66.50;;;;;;5115929;28;20047;-79
2022/05/04 09:35:19;;;;;;;5.65;3.60;;;21.70;64.30;;;;;;5085927;28;20048;-78
2022/05/04 09:46:05;;;;;;;6.30;4.03;;;22.00;62.50;;;;;;5113732;28;20043;-77
2022/05/04 09:48:33;;;;;;;4.75;3.03;;;22.20;59.50;;;;;;5111965;28;20050;-76
2022/05/04 09:51:05;;;;;;;5.50;3.53;;;22.20;59.40;;;;;;5094801;28;20047;-75
2022/05/04 09:53:36;;;;;;;8.00;3.63;;;22.50;58.10;;;;;;5112868;28;20085;-77
2022/05/04 09:56:05;;;;;;;8.00;4.00;;;22.60;56.60;;;;;;5112442;28;20047;-77
2022/05/04 09:58:32;;;;;;;7.55;4.53;;;22.80;55.30;;;;;;5117742;28;20044;-76
2022/05/04 10:01:00;;;;;;;10.45;4.18;;;22.80;55.80;;;;;;5116854;28;20047;-76
2022/05/04 10:03:28;;;;;;;8.43;3.08;;;22.90;56.80;;;;;;5115289;28;20509;-77
2022/05/04 10:05:56;;;;;;;6.28;4.07;;;22.90;56.60;;;;;;5094375;28;20047;-77
2022/05/04 10:08:24;;;;;;;7.93;3.63;;;22.80;56.50;;;;;;5078856;28;20396;-77
2022/05/04 10:10:55;;;;;;;6.88;3.90;;;22.70;54.60;;;;;;5098325;28;20070;-74
2022/05/04 10:13:24;;;;;;;7.35;3.78;;;22.70;55.10;;;;;;5096340;28;20123;-75
2022/05/04 10:15:56;;;;;;;8.02;4.38;;;22.70;55.40;;;;;;5078430;28;20407;-76
2022/05/04 10:18:27;;;;;;;5.72;3.05;;;22.80;56.10;;;;;;5096535;28;20107;-76
2022/05/04 10:21:01;;;;;;;7.78;3.22;;;22.90;52.50;;;;;;5096491;28;20047;-76
2022/05/04 10:23:31;;;;;;;7.72;3.22;;;23.00;52.20;;;;;;5078148;28;20093;-76
2022/05/04 10:26:00;;;;;;;6.18;3.47;;;22.90;49.10;;;;;;5096746;28;20471;-76
2022/05/04 10:28:28;;;;;;;8.30;2.22;;;23.00;50.10;;;;;;5096301;28;20048;-76
2022/05/04 10:30:56;;;;;;;5.45;2.00;;;23.00;42.70;;;;;;5096719;28;20135;-76
2022/05/04 10:33:25;;;;;;;5.40;3.03;;;22.80;41.50;;;;;;5078778;28;20127;-76
2022/05/04 10:35:54;;;;;;;4.00;1.73;;;22.70;42.20;;;;;;5080653;28;20048;-75
2022/05/04 10:38:33;;;;;;;5.93;1.40;;;22.50;40.50;;;;;;5081888;28;20036;-76
2022/05/04 10:41:05;;;;;;;4.20;2.05;;;22.60;37.40;;;;;;5099757;28;20169;-75
2022/05/04 10:43:35;;;;;;;9.20;3.03;;;22.50;38.10;;;;;;5098569;28;20032;-75
2022/05/04 10:46:09;;;;;;;5.07;1.65;;;22.60;37.80;;;;;;5079062;28;20411;-76
2022/05/04 10:48:37;;;;;;;4.55;2.40;;;22.50;35.80;;;;;;5096450;28;20521;-75
2022/05/04 10:51:11;;;;;;;6.35;2.08;;;22.50;36.40;;;;;;5078358;28;20097;-76
2022/05/04 10:53:44;;;;;;;4.50;2.90;;;22.50;36.00;;;;;;5096335;28;20119;-76
2022/05/04 10:56:17;;;;;;;6.75;2.80;;;22.60;35.30;;;;;;5096776;28;20042;-77
2022/05/04 10:58:54;;;;;;;7.25;5.15;;;22.70;35.60;;;;;;5097720;28;20074;-77
2022/05/04 11:01:23;;;;;;;2.58;1.27;;;22.90;35.90;;;;;;5097265;28;20077;-76
2022/05/04 11:03:59;;;;;;;6.30;1.70;;;22.90;32.50;;;;;;5098541;28;20067;-76
2022/05/04 11:06:28;;;;;;;;;;;22.70;33.70;;;;;;5097644;28;20448;-75
2022/05/04 11:08:58;;;;;;;5.40;2.42;;;22.60;35.80;;;;;;5096023;28;20583;-75
2022/05/04 11:11:28;;;;;;;9.57;2.60;;;22.50;35.30;;;;;;5096240;28;20081;-76
2022/05/04 11:13:55;;;;;;;6.03;1.60;;;22.60;38.40;;;;;;5096303;28;20082;-77
2022/05/04 11:16:24;;;;;;;4.20;1.83;;;22.40;37.30;;;;;;5098774;28;20399;-77
2022/05/04 11:18:53;;;;;;;3.67;2.15;;;22.60;37.70;;;;;;5110354;28;20039;-76
2022/05/04 11:21:20;;;;;;;4.13;1.80;;;22.20;39.90;;;;;;5118771;28;20091;-76
2022/05/04 11:23:49;;;;;;;8.18;2.63;;;22.40;39.50;;;;;;5110601;28;20040;-76
2022/05/04 11:26:19;;;;;;;3.47;1.80;;;22.60;41.00;;;;;;5097191;28;20437;-77
2022/05/04 11:28:48;;;;;;;4.97;1.80;;;22.70;38.50;;;;;;5097404;28;20527;-76
2022/05/04 11:31:16;;;;;;;4.70;2.10;;;22.40;37.90;;;;;;5098894;28;20043;-76
2022/05/04 11:33:44;;;;;;;4.47;1.70;;;22.40;38.30;;;;;;5095611;28;20032;-76
2022/05/04 11:36:13;;;;;;;3.88;1.88;;;22.40;38.00;;;;;;5095679;28;20089;-75
2022/05/04 11:38:44;;;;;;;8.13;1.90;;;22.50;38.70;;;;;;5095578;28;20047;-77
2022/05/04 11:41:12;;;;;;;3.25;1.70;;;22.40;39.00;;;;;;5102336;28;20040;-76
2022/05/04 11:43:40;;;;;;;6.07;2.53;;;22.30;38.80;;;;;;5115397;28;20043;-76
2022/05/04 11:46:12;;;;;;;6.57;3.05;;;22.20;39.80;;;;;;5115076;28;20069;-75
2022/05/04 11:48:42;;;;;;;5.93;2.58;;;22.40;40.90;;;;;;5111711;28;20557;-77
2022/05/04 11:51:11;;;;;;;6.45;2.13;;;22.50;42.00;;;;;;5115038;28;20040;-75
2022/05/04 11:53:39;;;;;;;5.25;2.20;;;22.60;39.80;;;;;;5114768;28;20077;-76
2022/05/04 11:56:08;;;;;;;3.72;2.30;;;22.50;39.90;;;;;;5088581;28;20048;-75
2022/05/04 11:58:37;;;;;;;5.60;1.77;;;22.40;40.70;;;;;;5115017;28;20051;-76
2022/05/04 12:01:07;;;;;;;4.80;2.30;;;22.50;40.50;;;;;;5113668;28;20043;-75
2022/05/04 12:03:38;;;;;;;5.25;2.00;;;22.30;41.60;;;;;;5101344;28;20052;-74
2022/05/04 12:06:09;;;;;;;4.63;2.38;;;22.30;42.00;;;;;;5104571;28;20069;-76
2022/05/04 12:08:38;;;;;;;7.80;2.67;;;22.50;43.40;;;;;;5113591;28;20509;-75
2022/05/04 12:11:07;;;;;;;4.43;2.63;;;22.40;43.60;;;;;;5095543;28;20063;-75
2022/05/04 12:13:38;;;;;;;4.93;2.75;;;22.50;43.40;;;;;;5114619;28;20062;-77
2022/05/04 12:16:07;;;;;;;5.18;2.25;;;22.40;44.10;;;;;;5086681;28;20161;-77
2022/05/04 12:18:38;;;;;;;3.70;2.13;;;22.50;43.90;;;;;;5107625;28;20043;-77
2022/05/04 12:21:07;;;;;;;5.45;3.53;;;22.40;44.60;;;;;;5097570;28;20084;-75
2022/05/04 12:23:35;;;;;;;5.80;2.75;;;22.50;45.00;;;;;;5113372;28;20031;-76
2022/05/04 12:26:04;;;;;;;4.45;2.22;;;22.50;44.60;;;;;;5113877;28;20043;-76
2022/05/04 12:28:31;;;;;;;6.75;3.58;;;22.60;44.30;;;;;;5115422;28;20119;-78
2022/05/04 12:33:48;;;;;;;5.28;2.85;;;22.60;45.80;;;;;;5107995;28;20559;-75
2022/05/04 12:36:18;;;;;;;6.43;2.30;;;22.70;46.00;;;;;;5105229;28;20044;-78
2022/05/04 12:38:48;;;;;;;4.82;2.90;;;22.70;45.30;;;;;;5099791;28;20059;-76
2022/05/04 12:41:18;;;;;;;7.93;2.92;;;22.50;47.00;;;;;;5105179;28;20066;-76
2022/05/04 12:43:46;;;;;;;5.57;2.80;;;22.40;47.90;;;;;;5090236;28;20046;-76
2022/05/04 12:46:15;;;;;;;4.38;2.58;;;22.20;46.80;;;;;;5103766;28;20571;-77
2022/05/04 12:48:46;;;;;;;5.85;2.75;;;22.20;46.80;;;;;;5113893;28;20043;-76
2022/05/04 12:51:16;;;;;;;4.32;2.60;;;22.30;46.70;;;;;;5115683;28;20118;-76
2022/05/04 12:53:47;;;;;;;5.60;2.78;;;22.40;46.60;;;;;;5096723;28;20048;-77
2022/05/04 12:59:01;;;;;;;8.45;3.70;;;22.60;47.90;;;;;;5099272;28;20040;-77
2022/05/04 13:01:30;;;;;;;8.32;4.00;;;22.40;46.60;;;;;;5115443;28;20386;-77
2022/05/04 13:04:05;;;;;;;14.35;7.60;;;22.40;46.70;;;;;;5118174;28;20039;-76
2022/05/04 13:06:33;;;;;;;7.78;3.80;;;22.50;47.30;;;;;;5083224;28;20128;-77
2022/05/04 13:09:01;;;;;;;5.63;2.88;;;22.50;46.90;;;;;;5110916;28;20062;-76
2022/05/04 13:11:30;;;;;;;4.80;3.05;;;22.70;44.80;;;;;;5098370;28;20045;-78
2022/05/04 13:13:57;;;;;;;6.70;3.53;;;22.80;44.70;;;;;;5105658;28;20048;-78
2022/05/04 13:16:25;;;;;;;5.93;2.78;;;22.80;44.60;;;;;;5094638;28;20047;-77
2022/05/04 13:18:52;;;;;;;9.00;3.95;;;22.80;44.30;;;;;;5109662;28;20036;-76
2022/05/04 13:21:23;;;;;;;6.60;4.40;;;22.80;45.50;;;;;;5097317;28;20046;-75
2022/05/04 13:23:50;;;;;;;8.45;4.95;;;22.90;44.20;;;;;;5106446;28;20077;-76
2022/05/04 13:26:21;;;;;;;53.47;17.25;;;22.90;44.50;;;;;;5104830;28;20487;-76
2022/05/04 13:28:49;;;;;;;9.50;6.03;;;22.90;44.70;;;;;;5098612;28;20470;-76